sensor_id;sensor_type;location;lat;lon;timestamp;P1;durP1;ratioP1;P2;durP2;ratioP2
71937;SDS011;59810;48.800;9.086;2023-06-10T00:01:44;7.93;;;5.30;;
71937;SDS011;59810;48.800;9.086;2023-06-10T00:04:15;9.80;;;5.63;;
71937;SDS011;59810;48.800;9.086;2023-06-10T00:06:41;9.60;;;5.47;;
71937;SDS011;59810;48.800;9.086;2023-06-10T00:09:13;9.23;;;5.60;;
71937;SDS011;59810;48.800;9.086;2023-06-10T00:11:39;10.05;;;6.13;;
71937;SDS011;59810;48.800;9.086;2023-06-10T00:14:05;9.80;;;5.90;;
71937;SDS011;59810;48.800;9.086;2023-06-10T00:16:33;9.07;;;5.65;;
71937;SDS011;59810;48.800;9.086;2023-06-10T00:19:00;8.63;;;5.40;;
71937;SDS011;59810;48.800;9.086;2023-06-10T00:21:28;8.20;;;5.65;;
71937;SDS011;59810;48.800;9.086;2023-06-10T00:26:31;9.40;;;6.00;;
71937;SDS011;59810;48.800;9.086;2023-06-10T00:28:57;7.83;;;5.30;;
71937;SDS011;59810;48.800;9.086;2023-06-10T00:31:23;11.97;;;6.13;;
71937;SDS011;59810;48.800;9.086;2023-06-10T00:33:48;10.27;;;5.75;;
71937;SDS011;59810;48.800;9.086;2023-06-10T00:36:14;9.17;;;5.63;;
71937;SDS011;59810;48.800;9.086;2023-06-10T00:38:39;8.93;;;5.53;;
71937;SDS011;59810;48.800;9.086;2023-06-10T00:41:06;10.45;;;5.97;;
71937;SDS011;59810;48.800;9.086;2023-06-10T00:43:31;8.38;;;5.82;;
71937;SDS011;59810;48.800;9.086;2023-06-10T00:45:57;8.00;;;5.63;;
71937;SDS011;59810;48.800;9.086;2023-06-10T00:48:22;8.97;;;5.47;;
71937;SDS011;59810;48.800;9.086;2023-06-10T00:50:48;10.57;;;6.17;;
71937;SDS011;59810;48.800;9.086;2023-06-10T00:53:13;8.53;;;5.67;;
71937;SDS011;59810;48.800;9.086;2023-06-10T00:55:41;9.40;;;5.70;;
71937;SDS011;59810;48.800;9.086;2023-06-10T00:58:07;8.43;;;5.70;;
71937;SDS011;59810;48.800;9.086;2023-06-10T01:00:33;9.90;;;5.68;;
71937;SDS011;59810;48.800;9.086;2023-06-10T01:02:58;8.37;;;5.50;;
71937;SDS011;59810;48.800;9.086;2023-06-10T01:05:24;8.30;;;5.60;;
71937;SDS011;59810;48.800;9.086;2023-06-10T01:07:56;8.07;;;5.07;;
71937;SDS011;59810;48.800;9.086;2023-06-10T01:13:09;8.25;;;5.53;;
71937;SDS011;59810;48.800;9.086;2023-06-10T01:15:39;9.45;;;5.60;;
71937;SDS011;59810;48.800;9.086;2023-06-10T01:18:05;8.47;;;5.43;;
71937;SDS011;59810;48.800;9.086;2023-06-10T01:20:40;9.30;;;6.07;;
71937;SDS011;59810;48.800;9.086;2023-06-10T01:23:08;10.13;;;6.10;;
71937;SDS011;59810;48.800;9.086;2023-06-10T01:25:38;8.88;;;5.47;;
71937;SDS011;59810;48.800;9.086;2023-06-10T01:33:43;8.95;;;5.25;;
71937;SDS011;59810;48.800;9.086;2023-06-10T01:36:12;8.85;;;5.57;;
71937;SDS011;59810;48.800;9.086;2023-06-10T01:38:41;8.40;;;5.38;;
71937;SDS011;59810;48.800;9.086;2023-06-10T01:41:16;9.87;;;5.10;;
71937;SDS011;59810;48.800;9.086;2023-06-10T01:43:43;10.98;;;5.40;;
71937;SDS011;59810;48.800;9.086;2023-06-10T01:46:11;8.05;;;4.97;;
71937;SDS011;59810;48.800;9.086;2023-06-10T01:48:37;8.03;;;5.23;;
71937;SDS011;59810;48.800;9.086;2023-06-10T01:51:03;8.38;;;5.32;;
71937;SDS011;59810;48.800;9.086;2023-06-10T01:53:28;7.97;;;4.97;;
71937;SDS011;59810;48.800;9.086;2023-06-10T01:55:56;8.23;;;5.10;;
71937;SDS011;59810;48.800;9.086;2023-06-10T01:58:21;7.78;;;5.00;;
71937;SDS011;59810;48.800;9.086;2023-06-10T02:00:47;8.83;;;4.87;;
71937;SDS011;59810;48.800;9.086;2023-06-10T02:03:12;7.83;;;5.13;;
71937;SDS011;59810;48.800;9.086;2023-06-10T02:05:38;8.03;;;5.17;;
71937;SDS011;59810;48.800;9.086;2023-06-10T02:08:03;7.60;;;5.10;;
71937;SDS011;59810;48.800;9.086;2023-06-10T02:10:31;8.32;;;5.63;;
71937;SDS011;59810;48.800;9.086;2023-06-10T02:12:57;10.13;;;4.93;;
71937;SDS011;59810;48.800;9.086;2023-06-10T02:15:22;8.20;;;4.90;;
71937;SDS011;59810;48.800;9.086;2023-06-10T02:17:47;8.43;;;5.17;;
71937;SDS011;59810;48.800;9.086;2023-06-10T02:20:16;7.88;;;4.93;;
71937;SDS011;59810;48.800;9.086;2023-06-10T02:22:41;8.00;;;4.90;;
71937;SDS011;59810;48.800;9.086;2023-06-10T02:25:07;9.75;;;4.85;;
71937;SDS011;59810;48.800;9.086;2023-06-10T02:27:33;8.50;;;5.30;;
71937;SDS011;59810;48.800;9.086;2023-06-10T02:29:58;8.68;;;5.32;;
71937;SDS011;59810;48.800;9.086;2023-06-10T02:32:23;8.53;;;5.10;;
71937;SDS011;59810;48.800;9.086;2023-06-10T02:34:49;8.57;;;5.40;;
71937;SDS011;59810;48.800;9.086;2023-06-10T02:37:15;8.57;;;5.50;;
71937;SDS011;59810;48.800;9.086;2023-06-10T02:39:55;7.80;;;4.97;;
71937;SDS011;59810;48.800;9.086;2023-06-10T02:42:26;9.50;;;5.20;;
71937;SDS011;59810;48.800;9.086;2023-06-10T02:44:51;9.03;;;5.53;;
71937;SDS011;59810;48.800;9.086;2023-06-10T02:47:16;10.43;;;5.40;;
71937;SDS011;59810;48.800;9.086;2023-06-10T02:49:41;8.80;;;5.20;;
71937;SDS011;59810;48.800;9.086;2023-06-10T02:52:07;8.48;;;5.30;;
71937;SDS011;59810;48.800;9.086;2023-06-10T02:54:33;7.90;;;5.17;;
71937;SDS011;59810;48.800;9.086;2023-06-10T02:56:58;10.23;;;5.60;;
71937;SDS011;59810;48.800;9.086;2023-06-10T02:59:23;7.60;;;4.70;;
71937;SDS011;59810;48.800;9.086;2023-06-10T03:01:49;10.83;;;5.33;;
71937;SDS011;59810;48.800;9.086;2023-06-10T03:04:14;9.17;;;5.57;;
71937;SDS011;59810;48.800;9.086;2023-06-10T03:06:40;7.67;;;4.63;;
71937;SDS011;59810;48.800;9.086;2023-06-10T03:09:10;8.27;;;5.10;;
71937;SDS011;59810;48.800;9.086;2023-06-10T03:11:36;7.72;;;4.63;;
71937;SDS011;59810;48.800;9.086;2023-06-10T03:14:01;9.27;;;4.97;;
71937;SDS011;59810;48.800;9.086;2023-06-10T03:16:27;8.87;;;5.60;;
71937;SDS011;59810;48.800;9.086;2023-06-10T03:18:53;9.05;;;5.18;;
71937;SDS011;59810;48.800;9.086;2023-06-10T03:21:18;8.70;;;4.83;;
71937;SDS011;59810;48.800;9.086;2023-06-10T03:23:44;9.27;;;5.40;;
71937;SDS011;59810;48.800;9.086;2023-06-10T03:26:10;8.90;;;5.50;;
71937;SDS011;59810;48.800;9.086;2023-06-10T03:28:37;9.30;;;5.60;;
71937;SDS011;59810;48.800;9.086;2023-06-10T03:31:03;9.37;;;5.60;;
71937;SDS011;59810;48.800;9.086;2023-06-10T03:33:28;9.15;;;5.55;;
71937;SDS011;59810;48.800;9.086;2023-06-10T03:35:53;11.23;;;6.10;;
71937;SDS011;59810;48.800;9.086;2023-06-10T03:38:19;10.13;;;6.20;;
71937;SDS011;59810;48.800;9.086;2023-06-10T03:40:46;10.00;;;5.65;;
71937;SDS011;59810;48.800;9.086;2023-06-10T03:43:12;9.57;;;5.67;;
71937;SDS011;59810;48.800;9.086;2023-06-10T03:45:37;8.82;;;5.40;;
71937;SDS011;59810;48.800;9.086;2023-06-10T03:48:03;9.83;;;5.83;;
71937;SDS011;59810;48.800;9.086;2023-06-10T03:50:28;9.17;;;6.10;;
71937;SDS011;59810;48.800;9.086;2023-06-10T03:52:54;9.38;;;5.97;;
71937;SDS011;59810;48.800;9.086;2023-06-10T03:55:19;9.57;;;6.20;;
71937;SDS011;59810;48.800;9.086;2023-06-10T03:57:46;9.25;;;5.60;;
71937;SDS011;59810;48.800;9.086;2023-06-10T04:00:12;9.95;;;6.07;;
71937;SDS011;59810;48.800;9.086;2023-06-10T04:02:38;11.47;;;6.70;;
71937;SDS011;59810;48.800;9.086;2023-06-10T04:05:14;9.45;;;6.18;;
71937;SDS011;59810;48.800;9.086;2023-06-10T04:07:41;11.07;;;6.03;;
71937;SDS011;59810;48.800;9.086;2023-06-10T04:10:07;10.10;;;6.22;;
71937;SDS011;59810;48.800;9.086;2023-06-10T04:12:33;10.90;;;6.22;;
71937;SDS011;59810;48.800;9.086;2023-06-10T04:14:59;10.77;;;6.27;;
71937;SDS011;59810;48.800;9.086;2023-06-10T04:17:25;8.90;;;5.70;;
71937;SDS011;59810;48.800;9.086;2023-06-10T04:19:50;10.90;;;6.47;;
71937;SDS011;59810;48.800;9.086;2023-06-10T04:22:17;10.63;;;5.22;;
71937;SDS011;59810;48.800;9.086;2023-06-10T04:24:43;8.82;;;5.63;;
71937;SDS011;59810;48.800;9.086;2023-06-10T04:27:08;8.33;;;5.23;;
71937;SDS011;59810;48.800;9.086;2023-06-10T04:29:33;8.70;;;5.40;;
71937;SDS011;59810;48.800;9.086;2023-06-10T04:31:59;9.90;;;6.13;;
71937;SDS011;59810;48.800;9.086;2023-06-10T04:34:26;8.82;;;5.63;;
71937;SDS011;59810;48.800;9.086;2023-06-10T04:36:52;8.65;;;5.47;;
71937;SDS011;59810;48.800;9.086;2023-06-10T04:39:17;9.90;;;5.67;;
71937;SDS011;59810;48.800;9.086;2023-06-10T04:41:43;9.93;;;5.50;;
71937;SDS011;59810;48.800;9.086;2023-06-10T04:44:09;9.27;;;5.83;;
71937;SDS011;59810;48.800;9.086;2023-06-10T04:46:35;7.90;;;4.82;;
71937;SDS011;59810;48.800;9.086;2023-06-10T04:49:01;8.80;;;5.27;;
71937;SDS011;59810;48.800;9.086;2023-06-10T04:51:27;9.63;;;5.50;;
71937;SDS011;59810;48.800;9.086;2023-06-10T04:53:53;9.05;;;5.88;;
71937;SDS011;59810;48.800;9.086;2023-06-10T04:56:18;9.70;;;5.83;;
71937;SDS011;59810;48.800;9.086;2023-06-10T04:58:44;9.77;;;5.68;;
71937;SDS011;59810;48.800;9.086;2023-06-10T05:01:12;8.17;;;5.50;;
71937;SDS011;59810;48.800;9.086;2023-06-10T05:03:37;8.85;;;5.78;;
71937;SDS011;59810;48.800;9.086;2023-06-10T05:06:03;7.93;;;5.07;;
71937;SDS011;59810;48.800;9.086;2023-06-10T05:08:28;10.20;;;5.90;;
71937;SDS011;59810;48.800;9.086;2023-06-10T05:10:56;9.13;;;5.65;;
71937;SDS011;59810;48.800;9.086;2023-06-10T05:13:22;10.10;;;6.50;;
71937;SDS011;59810;48.800;9.086;2023-06-10T05:15:49;9.43;;;5.88;;
71937;SDS011;59810;48.800;9.086;2023-06-10T05:18:15;10.00;;;6.20;;
71937;SDS011;59810;48.800;9.086;2023-06-10T05:20:40;8.10;;;5.60;;
71937;SDS011;59810;48.800;9.086;2023-06-10T05:23:08;11.00;;;5.68;;
71937;SDS011;59810;48.800;9.086;2023-06-10T05:25:33;11.63;;;7.27;;
71937;SDS011;59810;48.800;9.086;2023-06-10T05:27:59;10.07;;;6.82;;
71937;SDS011;59810;48.800;9.086;2023-06-10T05:30:25;11.53;;;6.83;;
71937;SDS011;59810;48.800;9.086;2023-06-10T05:32:51;10.90;;;6.75;;
71937;SDS011;59810;48.800;9.086;2023-06-10T05:35:17;10.77;;;6.43;;
71937;SDS011;59810;48.800;9.086;2023-06-10T05:37:45;10.47;;;6.63;;
71937;SDS011;59810;48.800;9.086;2023-06-10T05:40:13;11.55;;;6.75;;
71937;SDS011;59810;48.800;9.086;2023-06-10T05:42:38;11.40;;;6.50;;
71937;SDS011;59810;48.800;9.086;2023-06-10T05:45:05;10.17;;;6.13;;
71937;SDS011;59810;48.800;9.086;2023-06-10T05:47:31;9.88;;;5.40;;
71937;SDS011;59810;48.800;9.086;2023-06-10T05:49:59;9.77;;;5.82;;
71937;SDS011;59810;48.800;9.086;2023-06-10T05:52:25;10.20;;;5.20;;
71937;SDS011;59810;48.800;9.086;2023-06-10T05:54:51;8.52;;;5.32;;
71937;SDS011;59810;48.800;9.086;2023-06-10T05:57:16;7.83;;;5.00;;
71937;SDS011;59810;48.800;9.086;2023-06-10T05:59:41;7.90;;;4.93;;
71937;SDS011;59810;48.800;9.086;2023-06-10T06:02:09;8.63;;;5.13;;
71937;SDS011;59810;48.800;9.086;2023-06-10T06:04:34;7.60;;;5.00;;
71937;SDS011;59810;48.800;9.086;2023-06-10T06:07:00;7.37;;;4.63;;
71937;SDS011;59810;48.800;9.086;2023-06-10T06:09:25;10.00;;;4.80;;
71937;SDS011;59810;48.800;9.086;2023-06-10T06:11:53;8.15;;;4.85;;
71937;SDS011;59810;48.800;9.086;2023-06-10T06:14:21;7.40;;;4.53;;
71937;SDS011;59810;48.800;9.086;2023-06-10T06:16:46;9.18;;;4.97;;
71937;SDS011;59810;48.800;9.086;2023-06-10T06:19:12;8.47;;;4.77;;
71937;SDS011;59810;48.800;9.086;2023-06-10T06:21:37;8.13;;;4.57;;
71937;SDS011;59810;48.800;9.086;2023-06-10T06:24:02;9.50;;;4.37;;
71937;SDS011;59810;48.800;9.086;2023-06-10T06:26:28;8.53;;;4.20;;
71937;SDS011;59810;48.800;9.086;2023-06-10T06:28:53;7.88;;;4.65;;
71937;SDS011;59810;48.800;9.086;2023-06-10T06:31:21;7.80;;;4.30;;
71937;SDS011;59810;48.800;9.086;2023-06-10T06:33:46;10.40;;;4.60;;
71937;SDS011;59810;48.800;9.086;2023-06-10T06:36:11;8.13;;;4.60;;
71937;SDS011;59810;48.800;9.086;2023-06-10T06:38:37;8.77;;;4.53;;
71937;SDS011;59810;48.800;9.086;2023-06-10T06:41:02;7.43;;;4.50;;
71937;SDS011;59810;48.800;9.086;2023-06-10T06:43:29;8.35;;;4.25;;
71937;SDS011;59810;48.800;9.086;2023-06-10T06:45:56;8.07;;;4.00;;
71937;SDS011;59810;48.800;9.086;2023-06-10T06:48:22;8.75;;;4.80;;
71937;SDS011;59810;48.800;9.086;2023-06-10T06:50:48;7.57;;;4.50;;
71937;SDS011;59810;48.800;9.086;2023-06-10T06:53:13;7.80;;;4.80;;
71937;SDS011;59810;48.800;9.086;2023-06-10T06:55:38;7.50;;;4.23;;
71937;SDS011;59810;48.800;9.086;2023-06-10T06:58:04;7.63;;;4.43;;
71937;SDS011;59810;48.800;9.086;2023-06-10T07:00:29;7.33;;;4.23;;
71937;SDS011;59810;48.800;9.086;2023-06-10T07:02:55;8.20;;;4.55;;
71937;SDS011;59810;48.800;9.086;2023-06-10T07:05:22;7.82;;;4.40;;
71937;SDS011;59810;48.800;9.086;2023-06-10T07:07:50;11.70;;;5.53;;
71937;SDS011;59810;48.800;9.086;2023-06-10T07:10:19;7.47;;;4.23;;
71937;SDS011;59810;48.800;9.086;2023-06-10T07:12:46;7.90;;;4.10;;
71937;SDS011;59810;48.800;9.086;2023-06-10T07:15:15;7.47;;;4.05;;
71937;SDS011;59810;48.800;9.086;2023-06-10T07:17:43;8.55;;;4.68;;
71937;SDS011;59810;48.800;9.086;2023-06-10T07:20:09;7.47;;;4.30;;
71937;SDS011;59810;48.800;9.086;2023-06-10T07:22:35;7.50;;;4.47;;
71937;SDS011;59810;48.800;9.086;2023-06-10T07:25:00;7.38;;;4.10;;
71937;SDS011;59810;48.800;9.086;2023-06-10T07:27:26;8.17;;;4.60;;
71937;SDS011;59810;48.800;9.086;2023-06-10T07:29:51;7.63;;;4.50;;
71937;SDS011;59810;48.800;9.086;2023-06-10T07:32:17;7.43;;;4.50;;
71937;SDS011;59810;48.800;9.086;2023-06-10T07:34:42;8.13;;;4.70;;
71937;SDS011;59810;48.800;9.086;2023-06-10T07:37:07;6.53;;;3.60;;
71937;SDS011;59810;48.800;9.086;2023-06-10T07:39:33;7.13;;;3.80;;
71937;SDS011;59810;48.800;9.086;2023-06-10T07:41:59;7.72;;;4.25;;
71937;SDS011;59810;48.800;9.086;2023-06-10T07:44:25;8.23;;;4.70;;
71937;SDS011;59810;48.800;9.086;2023-06-10T07:46:50;8.63;;;4.40;;
71937;SDS011;59810;48.800;9.086;2023-06-10T07:49:15;12.82;;;4.50;;
71937;SDS011;59810;48.800;9.086;2023-06-10T07:51:41;9.00;;;4.47;;
71937;SDS011;59810;48.800;9.086;2023-06-10T07:54:06;6.93;;;4.27;;
71937;SDS011;59810;48.800;9.086;2023-06-10T07:56:31;6.47;;;4.13;;
71937;SDS011;59810;48.800;9.086;2023-06-10T07:58:57;6.93;;;3.93;;
71937;SDS011;59810;48.800;9.086;2023-06-10T08:01:22;7.57;;;4.00;;
71937;SDS011;59810;48.800;9.086;2023-06-10T08:03:49;8.40;;;4.17;;
71937;SDS011;59810;48.800;9.086;2023-06-10T08:06:14;6.90;;;4.38;;
71937;SDS011;59810;48.800;9.086;2023-06-10T08:08:41;7.80;;;4.63;;
71937;SDS011;59810;48.800;9.086;2023-06-10T08:11:08;7.78;;;4.40;;
71937;SDS011;59810;48.800;9.086;2023-06-10T08:13:35;7.22;;;4.32;;
71937;SDS011;59810;48.800;9.086;2023-06-10T08:16:02;7.28;;;4.13;;
71937;SDS011;59810;48.800;9.086;2023-06-10T08:18:28;9.30;;;4.68;;
71937;SDS011;59810;48.800;9.086;2023-06-10T08:20:53;13.87;;;5.40;;
71937;SDS011;59810;48.800;9.086;2023-06-10T08:23:19;13.68;;;5.35;;
71937;SDS011;59810;48.800;9.086;2023-06-10T08:25:47;7.97;;;4.43;;
71937;SDS011;59810;48.800;9.086;2023-06-10T08:28:12;7.63;;;4.77;;
71937;SDS011;59810;48.800;9.086;2023-06-10T08:30:37;8.00;;;4.93;;
71937;SDS011;59810;48.800;9.086;2023-06-10T08:33:03;7.00;;;4.43;;
71937;SDS011;59810;48.800;9.086;2023-06-10T08:35:28;7.77;;;4.70;;
71937;SDS011;59810;48.800;9.086;2023-06-10T08:37:56;7.93;;;4.50;;
71937;SDS011;59810;48.800;9.086;2023-06-10T08:40:21;7.25;;;4.28;;
71937;SDS011;59810;48.800;9.086;2023-06-10T08:42:58;8.03;;;5.13;;
71937;SDS011;59810;48.800;9.086;2023-06-10T08:45:30;7.47;;;4.40;;
71937;SDS011;59810;48.800;9.086;2023-06-10T08:48:00;8.85;;;4.47;;
71937;SDS011;59810;48.800;9.086;2023-06-10T08:50:33;8.97;;;4.50;;
71937;SDS011;59810;48.800;9.086;2023-06-10T08:53:01;7.95;;;4.55;;
71937;SDS011;59810;48.800;9.086;2023-06-10T08:57:57;7.03;;;4.70;;
71937;SDS011;59810;48.800;9.086;2023-06-10T09:00:23;7.35;;;4.70;;
71937;SDS011;59810;48.800;9.086;2023-06-10T09:02:50;8.50;;;4.70;;
71937;SDS011;59810;48.800;9.086;2023-06-10T09:05:16;11.52;;;5.38;;
71937;SDS011;59810;48.800;9.086;2023-06-10T09:07:46;9.90;;;5.30;;
71937;SDS011;59810;48.800;9.086;2023-06-10T09:10:15;9.15;;;4.57;;
71937;SDS011;59810;48.800;9.086;2023-06-10T09:12:41;9.63;;;5.17;;
71937;SDS011;59810;48.800;9.086;2023-06-10T09:15:09;7.10;;;4.50;;
71937;SDS011;59810;48.800;9.086;2023-06-10T09:17:36;9.02;;;4.80;;
71937;SDS011;59810;48.800;9.086;2023-06-10T09:20:03;7.68;;;5.13;;
71937;SDS011;59810;48.800;9.086;2023-06-10T09:22:28;9.23;;;5.32;;
71937;SDS011;59810;48.800;9.086;2023-06-10T09:25:04;8.50;;;5.10;;
71937;SDS011;59810;48.800;9.086;2023-06-10T09:27:33;7.40;;;4.60;;
71937;SDS011;59810;48.800;9.086;2023-06-10T09:30:23;7.65;;;5.18;;
71937;SDS011;59810;48.800;9.086;2023-06-10T09:32:51;9.10;;;5.55;;
71937;SDS011;59810;48.800;9.086;2023-06-10T09:35:17;8.35;;;5.28;;
71937;SDS011;59810;48.800;9.086;2023-06-10T09:37:43;8.77;;;4.90;;
71937;SDS011;59810;48.800;9.086;2023-06-10T09:40:12;8.05;;;5.22;;
71937;SDS011;59810;48.800;9.086;2023-06-10T09:42:38;8.83;;;4.87;;
71937;SDS011;59810;48.800;9.086;2023-06-10T09:45:06;8.68;;;4.90;;
71937;SDS011;59810;48.800;9.086;2023-06-10T09:47:35;7.97;;;5.25;;
71937;SDS011;59810;48.800;9.086;2023-06-10T09:50:00;7.40;;;4.77;;
71937;SDS011;59810;48.800;9.086;2023-06-10T09:52:27;8.27;;;4.65;;
71937;SDS011;59810;48.800;9.086;2023-06-10T09:54:55;8.02;;;5.18;;
71937;SDS011;59810;48.800;9.086;2023-06-10T09:57:24;10.52;;;4.65;;
71937;SDS011;59810;48.800;9.086;2023-06-10T09:59:53;8.43;;;5.35;;
71937;SDS011;59810;48.800;9.086;2023-06-10T10:02:21;7.47;;;4.73;;
71937;SDS011;59810;48.800;9.086;2023-06-10T10:04:49;6.97;;;4.97;;
71937;SDS011;59810;48.800;9.086;2023-06-10T10:07:14;7.10;;;4.50;;
71937;SDS011;59810;48.800;9.086;2023-06-10T10:09:40;7.30;;;4.72;;
71937;SDS011;59810;48.800;9.086;2023-06-10T10:12:13;8.97;;;5.30;;
71937;SDS011;59810;48.800;9.086;2023-06-10T10:14:45;8.63;;;5.07;;
71937;SDS011;59810;48.800;9.086;2023-06-10T10:17:14;7.07;;;4.90;;
71937;SDS011;59810;48.800;9.086;2023-06-10T10:19:46;7.25;;;4.85;;
71937;SDS011;59810;48.800;9.086;2023-06-10T10:22:23;7.75;;;5.07;;
71937;SDS011;59810;48.800;9.086;2023-06-10T10:24:57;8.63;;;5.13;;
71937;SDS011;59810;48.800;9.086;2023-06-10T10:29:54;8.82;;;4.88;;
71937;SDS011;59810;48.800;9.086;2023-06-10T10:32:29;9.40;;;4.68;;
71937;SDS011;59810;48.800;9.086;2023-06-10T10:37:37;6.87;;;4.73;;
71937;SDS011;59810;48.800;9.086;2023-06-10T10:40:04;7.57;;;4.85;;
71937;SDS011;59810;48.800;9.086;2023-06-10T10:42:32;7.65;;;4.95;;
71937;SDS011;59810;48.800;9.086;2023-06-10T10:44:59;7.22;;;4.55;;
71937;SDS011;59810;48.800;9.086;2023-06-10T10:47:27;7.32;;;4.55;;
71937;SDS011;59810;48.800;9.086;2023-06-10T10:49:55;7.87;;;5.33;;
71937;SDS011;59810;48.800;9.086;2023-06-10T10:52:24;8.02;;;5.00;;
71937;SDS011;59810;48.800;9.086;2023-06-10T10:54:50;8.10;;;5.15;;
71937;SDS011;59810;48.800;9.086;2023-06-10T10:57:19;7.78;;;4.95;;
71937;SDS011;59810;48.800;9.086;2023-06-10T11:02:17;7.47;;;4.90;;
71937;SDS011;59810;48.800;9.086;2023-06-10T11:04:46;8.45;;;5.00;;
71937;SDS011;59810;48.800;9.086;2023-06-10T11:07:13;7.45;;;4.93;;
71937;SDS011;59810;48.800;9.086;2023-06-10T11:09:57;7.13;;;5.00;;
71937;SDS011;59810;48.800;9.086;2023-06-10T11:12:23;7.68;;;5.53;;
71937;SDS011;59810;48.800;9.086;2023-06-10T11:14:53;6.23;;;4.40;;
71937;SDS011;59810;48.800;9.086;2023-06-10T11:17:20;7.20;;;5.10;;
71937;SDS011;59810;48.800;9.086;2023-06-10T11:19:46;8.43;;;5.30;;
71937;SDS011;59810;48.800;9.086;2023-06-10T11:22:16;8.00;;;5.47;;
71937;SDS011;59810;48.800;9.086;2023-06-10T11:24:47;7.20;;;4.93;;
71937;SDS011;59810;48.800;9.086;2023-06-10T11:27:23;8.60;;;4.75;;
71937;SDS011;59810;48.800;9.086;2023-06-10T11:32:34;7.63;;;4.63;;
71937;SDS011;59810;48.800;9.086;2023-06-10T11:35:02;6.78;;;4.75;;
71937;SDS011;59810;48.800;9.086;2023-06-10T11:37:31;8.82;;;5.03;;
71937;SDS011;59810;48.800;9.086;2023-06-10T11:39:56;6.47;;;4.50;;
71937;SDS011;59810;48.800;9.086;2023-06-10T11:42:23;8.00;;;4.23;;
71937;SDS011;59810;48.800;9.086;2023-06-10T11:44:48;7.27;;;5.00;;
71937;SDS011;59810;48.800;9.086;2023-06-10T11:47:20;15.07;;;5.00;;
71937;SDS011;59810;48.800;9.086;2023-06-10T11:49:46;8.20;;;4.75;;
71937;SDS011;59810;48.800;9.086;2023-06-10T11:52:25;8.30;;;4.97;;
71937;SDS011;59810;48.800;9.086;2023-06-10T11:54:55;6.43;;;4.30;;
71937;SDS011;59810;48.800;9.086;2023-06-10T11:57:21;6.93;;;4.60;;
71937;SDS011;59810;48.800;9.086;2023-06-10T11:59:46;6.57;;;4.57;;
71937;SDS011;59810;48.800;9.086;2023-06-10T12:02:18;6.13;;;4.20;;
71937;SDS011;59810;48.800;9.086;2023-06-10T12:04:48;7.78;;;4.75;;
71937;SDS011;59810;48.800;9.086;2023-06-10T12:07:19;6.93;;;4.60;;
71937;SDS011;59810;48.800;9.086;2023-06-10T12:09:45;6.70;;;4.53;;
71937;SDS011;59810;48.800;9.086;2023-06-10T12:12:10;6.07;;;4.18;;
71937;SDS011;59810;48.800;9.086;2023-06-10T12:14:50;7.30;;;4.47;;
71937;SDS011;59810;48.800;9.086;2023-06-10T12:20:03;7.03;;;4.50;;
71937;SDS011;59810;48.800;9.086;2023-06-10T12:22:38;7.07;;;4.60;;
71937;SDS011;59810;48.800;9.086;2023-06-10T12:25:50;8.10;;;5.20;;
71937;SDS011;59810;48.800;9.086;2023-06-10T12:28:16;6.47;;;4.85;;
71937;SDS011;59810;48.800;9.086;2023-06-10T12:30:44;7.57;;;4.57;;
71937;SDS011;59810;48.800;9.086;2023-06-10T12:33:16;6.75;;;4.68;;
71937;SDS011;59810;48.800;9.086;2023-06-10T12:35:48;7.07;;;4.40;;
71937;SDS011;59810;48.800;9.086;2023-06-10T12:38:14;6.40;;;4.32;;
71937;SDS011;59810;48.800;9.086;2023-06-10T12:40:46;7.28;;;4.78;;
71937;SDS011;59810;48.800;9.086;2023-06-10T12:43:12;7.90;;;4.70;;
71937;SDS011;59810;48.800;9.086;2023-06-10T12:45:39;7.07;;;4.50;;
71937;SDS011;59810;48.800;9.086;2023-06-10T12:48:10;7.68;;;4.38;;
71937;SDS011;59810;48.800;9.086;2023-06-10T12:50:40;7.15;;;4.60;;
71937;SDS011;59810;48.800;9.086;2023-06-10T12:53:06;5.80;;;4.20;;
71937;SDS011;59810;48.800;9.086;2023-06-10T12:55:36;6.85;;;4.25;;
71937;SDS011;59810;48.800;9.086;2023-06-10T12:58:01;6.68;;;4.60;;
71937;SDS011;59810;48.800;9.086;2023-06-10T13:00:28;7.13;;;4.88;;
71937;SDS011;59810;48.800;9.086;2023-06-10T13:03:01;7.37;;;4.40;;
71937;SDS011;59810;48.800;9.086;2023-06-10T13:05:30;6.68;;;4.50;;
71937;SDS011;59810;48.800;9.086;2023-06-10T13:07:56;6.93;;;4.53;;
71937;SDS011;59810;48.800;9.086;2023-06-10T13:10:22;9.03;;;4.40;;
71937;SDS011;59810;48.800;9.086;2023-06-10T13:12:47;6.20;;;4.20;;
71937;SDS011;59810;48.800;9.086;2023-06-10T13:15:13;6.23;;;4.10;;
71937;SDS011;59810;48.800;9.086;2023-06-10T13:17:43;5.97;;;4.45;;
71937;SDS011;59810;48.800;9.086;2023-06-10T13:20:11;6.82;;;4.38;;
71937;SDS011;59810;48.800;9.086;2023-06-10T13:22:37;7.33;;;4.00;;
71937;SDS011;59810;48.800;9.086;2023-06-10T13:25:02;10.77;;;4.03;;
71937;SDS011;59810;48.800;9.086;2023-06-10T13:27:29;6.40;;;3.88;;
71937;SDS011;59810;48.800;9.086;2023-06-10T13:29:54;6.37;;;4.20;;
71937;SDS011;59810;48.800;9.086;2023-06-10T13:32:19;6.87;;;4.43;;
71937;SDS011;59810;48.800;9.086;2023-06-10T13:34:47;7.13;;;4.68;;
71937;SDS011;59810;48.800;9.086;2023-06-10T13:37:16;6.05;;;4.63;;
71937;SDS011;59810;48.800;9.086;2023-06-10T13:39:45;6.90;;;4.20;;
71937;SDS011;59810;48.800;9.086;2023-06-10T13:42:16;6.75;;;4.10;;
71937;SDS011;59810;48.800;9.086;2023-06-10T13:44:42;6.40;;;3.97;;
71937;SDS011;59810;48.800;9.086;2023-06-10T13:47:07;6.25;;;3.85;;
71937;SDS011;59810;48.800;9.086;2023-06-10T13:49:33;5.67;;;3.73;;
71937;SDS011;59810;48.800;9.086;2023-06-10T13:51:58;5.73;;;3.90;;
71937;SDS011;59810;48.800;9.086;2023-06-10T13:54:23;5.27;;;4.03;;
71937;SDS011;59810;48.800;9.086;2023-06-10T13:56:52;5.93;;;3.97;;
71937;SDS011;59810;48.800;9.086;2023-06-10T13:59:19;5.47;;;4.27;;
71937;SDS011;59810;48.800;9.086;2023-06-10T14:01:45;6.55;;;4.32;;
71937;SDS011;59810;48.800;9.086;2023-06-10T14:04:11;6.55;;;4.03;;
71937;SDS011;59810;48.800;9.086;2023-06-10T14:06:36;5.70;;;4.00;;
71937;SDS011;59810;48.800;9.086;2023-06-10T14:09:01;5.80;;;4.43;;
71937;SDS011;59810;48.800;9.086;2023-06-10T14:11:27;6.33;;;4.27;;
71937;SDS011;59810;48.800;9.086;2023-06-10T14:13:52;5.90;;;4.10;;
71937;SDS011;59810;48.800;9.086;2023-06-10T14:16:21;6.20;;;4.30;;
71937;SDS011;59810;48.800;9.086;2023-06-10T14:18:47;9.57;;;4.57;;
71937;SDS011;59810;48.800;9.086;2023-06-10T14:21:12;6.17;;;4.50;;
71937;SDS011;59810;48.800;9.086;2023-06-10T14:23:37;5.65;;;4.20;;
71937;SDS011;59810;48.800;9.086;2023-06-10T14:26:03;6.00;;;4.03;;
71937;SDS011;59810;48.800;9.086;2023-06-10T14:28:28;5.87;;;4.20;;
71937;SDS011;59810;48.800;9.086;2023-06-10T14:33:34;5.47;;;4.03;;
71937;SDS011;59810;48.800;9.086;2023-06-10T14:36:00;6.33;;;4.37;;
71937;SDS011;59810;48.800;9.086;2023-06-10T14:38:25;6.10;;;4.50;;
71937;SDS011;59810;48.800;9.086;2023-06-10T14:40:50;6.13;;;4.33;;
71937;SDS011;59810;48.800;9.086;2023-06-10T14:43:17;6.13;;;4.65;;
71937;SDS011;59810;48.800;9.086;2023-06-10T14:45:42;6.27;;;4.97;;
71937;SDS011;59810;48.800;9.086;2023-06-10T14:48:08;6.38;;;4.97;;
71937;SDS011;59810;48.800;9.086;2023-06-10T14:50:37;8.00;;;5.50;;
71937;SDS011;59810;48.800;9.086;2023-06-10T14:53:03;6.15;;;4.82;;
71937;SDS011;59810;48.800;9.086;2023-06-10T14:55:29;5.83;;;4.67;;
71937;SDS011;59810;48.800;9.086;2023-06-10T14:57:54;7.10;;;5.28;;
71937;SDS011;59810;48.800;9.086;2023-06-10T15:00:21;6.37;;;5.13;;
71937;SDS011;59810;48.800;9.086;2023-06-10T15:02:50;6.13;;;4.95;;
71937;SDS011;59810;48.800;9.086;2023-06-10T15:05:16;5.95;;;4.55;;
71937;SDS011;59810;48.800;9.086;2023-06-10T15:07:44;6.50;;;4.80;;
71937;SDS011;59810;48.800;9.086;2023-06-10T15:10:09;6.10;;;4.82;;
71937;SDS011;59810;48.800;9.086;2023-06-10T15:12:35;5.90;;;4.97;;
71937;SDS011;59810;48.800;9.086;2023-06-10T15:15:01;5.93;;;5.17;;